createdAt,value
2019-04-25T00:01:09.079Z,11.96
2019-04-25T00:03:39.294Z,11.93
2019-04-25T00:06:09.030Z,11.92
2019-04-25T00:08:37.705Z,11.92
2019-04-25T00:11:06.788Z,11.96
2019-04-25T00:13:35.372Z,12.08
2019-04-25T00:16:04.658Z,11.88
2019-04-25T00:18:33.384Z,11.79
2019-04-25T00:21:03.812Z,11.78
2019-04-25T00:23:32.473Z,11.73
2019-04-25T00:26:05.074Z,11.63
2019-04-25T00:28:33.611Z,11.52
2019-04-25T00:31:02.806Z,11.45
2019-04-25T00:33:31.629Z,11.44
2019-04-25T00:36:02.100Z,11.43
2019-04-25T00:38:31.851Z,11.44
2019-04-25T00:41:01.756Z,11.46
2019-04-25T00:43:31.466Z,11.33
2019-04-25T00:46:01.512Z,11.22
2019-04-25T00:48:31.596Z,11.20
2019-04-25T00:51:01.738Z,11.28
2019-04-25T00:53:32.265Z,11.52
2019-04-25T00:56:01.442Z,11.50
2019-04-25T00:58:34.494Z,11.57
2019-04-25T01:01:22.989Z,11.52
2019-04-25T01:03:53.315Z,11.50
2019-04-25T01:06:22.117Z,11.42
2019-04-25T01:08:53.236Z,11.51
2019-04-25T01:11:21.540Z,11.57
2019-04-25T01:13:50.776Z,11.47
2019-04-25T01:16:22.018Z,11.58
2019-04-25T01:18:50.924Z,11.63
2019-04-25T01:21:19.596Z,11.65
2019-04-25T01:23:48.140Z,11.62
2019-04-25T01:26:16.684Z,11.54
2019-04-25T01:28:46.051Z,11.54
2019-04-25T01:31:16.736Z,11.47
2019-04-25T01:33:46.676Z,11.52
2019-04-25T01:36:17.146Z,11.59
2019-04-25T01:38:50.972Z,11.52
2019-04-25T01:41:37.279Z,11.43
2019-04-25T01:44:10.123Z,11.58
2019-04-25T01:46:40.409Z,11.68
2019-04-25T01:49:09.043Z,11.56
2019-04-25T01:51:37.641Z,11.34
2019-04-25T01:54:06.236Z,11.36
2019-04-25T01:56:35.024Z,11.33
2019-04-25T01:59:04.019Z,11.36
2019-04-25T02:01:34.070Z,11.29
2019-04-25T02:04:03.563Z,11.32
2019-04-25T02:06:33.489Z,11.33
2019-04-25T02:09:04.178Z,11.23
2019-04-25T02:11:34.656Z,11.18
2019-04-25T02:14:05.063Z,11.13
2019-04-25T02:16:35.324Z,10.97
2019-04-25T02:19:04.438Z,10.70
2019-04-25T02:21:33.478Z,10.60
2019-04-25T02:24:03.885Z,10.50
2019-04-25T02:26:33.970Z,10.56
2019-04-25T02:29:04.579Z,10.71
2019-04-25T02:31:34.795Z,10.63
2019-04-25T02:34:07.837Z,10.68
2019-04-25T02:36:34.741Z,10.64
2019-04-25T02:39:08.971Z,10.71
2019-04-25T02:41:36.831Z,10.87
2019-04-25T02:44:09.788Z,10.76
2019-04-25T02:46:37.606Z,10.76
2019-04-25T02:49:29.344Z,10.72
2019-04-25T02:51:48.846Z,10.52
2019-04-25T02:54:17.488Z,10.46
2019-04-25T02:56:46.757Z,10.58
2019-04-25T02:59:15.454Z,10.79
2019-04-25T03:01:44.603Z,10.79
2019-04-25T03:04:14.442Z,10.92
2019-04-25T03:06:45.287Z,11.06
2019-04-25T03:09:15.364Z,11.14
2019-04-25T03:11:45.193Z,11.15
2019-04-25T03:14:14.783Z,11.23
2019-04-25T03:16:44.844Z,11.40
2019-04-25T03:19:15.320Z,11.33
2019-04-25T03:21:55.046Z,11.25
2019-04-25T03:24:25.027Z,11.29
2019-04-25T03:26:53.818Z,11.10
2019-04-25T03:29:22.531Z,11.02
2019-04-25T03:31:51.117Z,11.06
2019-04-25T03:34:20.764Z,11.10
2019-04-25T03:36:49.665Z,11.21
2019-04-25T03:39:18.244Z,11.24
2019-04-25T03:41:46.868Z,11.22
2019-04-25T03:44:15.754Z,11.28
2019-04-25T03:46:44.877Z,11.28
2019-04-25T03:49:13.899Z,11.37
2019-04-25T03:51:43.887Z,11.63
2019-04-25T03:54:14.115Z,11.49
2019-04-25T03:56:51.886Z,11.34
2019-04-25T03:59:14.589Z,11.16
2019-04-25T04:01:43.901Z,11.09
2019-04-25T04:04:14.380Z,11.04
2019-04-25T04:06:44.107Z,11.05
2019-04-25T04:09:14.219Z,11.06
2019-04-25T04:11:43.548Z,10.98
2019-04-25T04:14:12.976Z,10.93
2019-04-25T04:16:44.376Z,10.95
2019-04-25T04:19:14.778Z,10.93
2019-04-25T04:21:53.121Z,10.95
2019-04-25T04:24:23.930Z,11.01
2019-04-25T04:27:10.805Z,11.30
2019-04-25T04:29:40.051Z,11.36
2019-04-25T04:32:08.732Z,11.34
2019-04-25T04:34:37.182Z,11.22
2019-04-25T04:37:05.825Z,11.12
2019-04-25T04:39:34.361Z,11.08
2019-04-25T04:42:03.853Z,10.99
2019-04-25T04:44:34.200Z,11.07
2019-04-25T04:47:04.063Z,11.08
2019-04-25T04:49:34.104Z,11.20
2019-04-25T04:52:06.111Z,11.35
2019-04-25T04:54:34.459Z,11.50
2019-04-25T04:57:16.606Z,11.56
2019-04-25T04:59:33.762Z,11.62
2019-04-25T05:02:03.981Z,11.99
2019-04-25T05:04:50.282Z,11.91
2019-04-25T05:07:36.964Z,11.79
2019-04-25T05:10:06.345Z,11.71
2019-04-25T05:12:34.828Z,11.73
2019-04-25T05:15:04.830Z,11.87
2019-04-25T05:17:34.259Z,12.01
2019-04-25T05:20:03.539Z,12.14
2019-04-25T05:22:33.336Z,12.27
2019-04-25T05:25:03.466Z,12.45
2019-04-25T05:27:39.941Z,12.45
2019-04-25T05:30:03.992Z,12.38
2019-04-25T05:32:34.160Z,12.44
2019-04-25T05:35:03.385Z,12.62
2019-04-25T05:37:33.499Z,12.62
2019-04-25T05:40:03.423Z,12.80
2019-04-25T05:42:50.267Z,13.03
2019-04-25T05:45:21.247Z,12.93
2019-04-25T05:47:49.913Z,12.87
2019-04-25T05:50:18.463Z,12.86
2019-04-25T05:52:47.105Z,12.93
2019-04-25T05:55:17.306Z,12.99
2019-04-25T05:57:50.005Z,13.17
2019-04-25T06:00:18.102Z,13.16
2019-04-25T06:02:46.927Z,13.11
2019-04-25T06:05:15.666Z,13.23
2019-04-25T06:07:44.246Z,13.25
2019-04-25T06:10:18.090Z,13.44
2019-04-25T06:12:48.237Z,13.54
2019-04-25T06:15:18.405Z,13.59
2019-04-25T06:17:48.600Z,13.64
2019-04-25T06:20:19.989Z,13.82
2019-04-25T06:22:53.378Z,13.92
2019-04-25T06:25:29.310Z,14.12
2019-04-25T06:27:58.610Z,14.21
2019-04-25T06:30:28.073Z,14.09
2019-04-25T06:32:56.661Z,14.10
2019-04-25T06:35:26.625Z,14.21
2019-04-25T06:37:55.739Z,14.19
2019-04-25T06:40:26.318Z,14.27
2019-04-25T06:42:55.697Z,14.44
2019-04-25T06:45:30.201Z,14.54
2019-04-25T06:48:00.350Z,14.52
2019-04-25T06:50:29.083Z,14.51
2019-04-25T06:52:57.558Z,14.50
2019-04-25T06:55:27.213Z,14.52
2019-04-25T06:57:56.173Z,14.47
2019-04-25T07:00:28.418Z,14.49
2019-04-25T07:02:55.368Z,14.56
2019-04-25T07:05:28.975Z,14.85
2019-04-25T07:07:54.242Z,15.22
2019-04-25T07:10:24.152Z,15.25
2019-04-25T07:12:54.384Z,15.25
2019-04-25T07:15:25.641Z,15.43
2019-04-25T07:17:54.086Z,15.52
2019-04-25T07:20:26.114Z,15.53
2019-04-25T07:22:54.107Z,15.58
2019-04-25T07:25:26.361Z,15.73
2019-04-25T07:28:22.227Z,15.93
2019-04-25T07:31:00.682Z,15.94
2019-04-25T07:33:40.119Z,16.05
2019-04-25T07:36:08.828Z,16.24
2019-04-25T07:38:37.458Z,15.94
2019-04-25T07:41:06.115Z,15.81
2019-04-25T07:43:35.418Z,15.77
2019-04-25T07:46:05.112Z,15.71
2019-04-25T07:48:36.635Z,15.46
2019-04-25T07:51:03.945Z,15.41
2019-04-25T07:53:34.597Z,15.28
2019-04-25T07:56:04.249Z,15.31
2019-04-25T07:58:49.580Z,15.32
2019-04-25T08:01:14.074Z,15.44
2019-04-25T08:03:43.833Z,15.48
2019-04-25T08:06:13.825Z,15.35
2019-04-25T08:08:43.667Z,15.63
2019-04-25T08:11:14.268Z,15.78
2019-04-25T08:13:44.460Z,15.84
2019-04-25T08:16:17.406Z,15.83
2019-04-25T08:18:46.422Z,16.24
2019-04-25T08:21:15.383Z,16.91
2019-04-25T08:23:44.280Z,17.55
2019-04-25T08:26:14.246Z,18.06
2019-04-25T08:28:53.983Z,18.39
2019-04-25T08:31:13.666Z,18.72
2019-04-25T08:33:43.786Z,18.74
2019-04-25T08:36:13.688Z,18.61
2019-04-25T08:38:44.557Z,18.64
2019-04-25T08:41:14.025Z,18.61
2019-04-25T08:43:43.655Z,18.22
2019-04-25T08:46:13.974Z,18.02
2019-04-25T08:49:06.143Z,17.86
2019-04-25T08:51:37.879Z,17.76
2019-04-25T08:54:11.509Z,17.57
2019-04-25T08:56:40.175Z,17.68
2019-04-25T08:59:35.996Z,17.66
2019-04-25T09:02:14.933Z,17.61
2019-04-25T09:05:00.214Z,17.57
2019-04-25T09:07:28.999Z,17.53
2019-04-25T09:09:57.576Z,17.54
2019-04-25T09:12:26.191Z,17.92
2019-04-25T09:14:54.734Z,18.21
2019-04-25T09:17:24.335Z,18.29
2019-04-25T09:19:54.187Z,18.27
2019-04-25T09:22:24.239Z,18.22
2019-04-25T09:24:53.976Z,18.04
2019-04-25T09:27:23.505Z,18.00
2019-04-25T09:29:54.077Z,17.96
2019-04-25T09:32:23.885Z,18.11
2019-04-25T09:34:54.028Z,18.32
2019-04-25T09:37:24.514Z,18.51
2019-04-25T09:40:04.228Z,18.56
2019-04-25T09:42:33.841Z,18.70
2019-04-25T09:45:04.940Z,18.55
2019-04-25T09:47:33.692Z,18.42
2019-04-25T09:50:04.212Z,18.51
2019-04-25T09:52:34.038Z,18.75
2019-04-25T09:55:07.310Z,18.75
2019-04-25T09:57:46.381Z,18.51
2019-04-25T10:00:17.265Z,18.47
2019-04-25T10:02:45.883Z,18.65
2019-04-25T10:05:14.452Z,18.74
2019-04-25T10:07:45.839Z,18.86
2019-04-25T10:10:13.671Z,19.18
2019-04-25T10:12:42.291Z,19.62
2019-04-25T10:15:20.276Z,19.85
2019-04-25T10:17:48.858Z,20.18
2019-04-25T10:20:19.140Z,20.28
2019-04-25T10:22:47.736Z,20.23
2019-04-25T10:25:16.713Z,20.11
2019-04-25T10:27:48.865Z,19.62
2019-04-25T10:30:21.576Z,19.40
2019-04-25T10:32:48.038Z,19.19
2019-04-25T10:35:16.641Z,19.15
2019-04-25T10:37:46.491Z,19.01
2019-04-25T10:40:16.353Z,18.79
2019-04-25T10:42:48.085Z,18.78
2019-04-25T10:45:23.354Z,18.60
2019-04-25T10:47:46.754Z,18.51
2019-04-25T10:50:16.108Z,18.77
2019-04-25T10:52:46.158Z,19.05
2019-04-25T10:55:15.166Z,19.07
2019-04-25T10:57:45.496Z,19.07
2019-04-25T11:00:45.882Z,19.06
2019-04-25T11:03:18.941Z,19.06
2019-04-25T11:05:47.712Z,19.16
2019-04-25T11:08:16.924Z,19.53
2019-04-25T11:10:47.493Z,20.04
2019-04-25T11:13:16.956Z,20.64
2019-04-25T11:15:45.670Z,21.16
2019-04-25T11:18:15.256Z,21.54
2019-04-25T11:20:44.684Z,21.82
2019-04-25T11:23:14.013Z,21.78
2019-04-25T11:25:43.544Z,21.65
2019-04-25T11:28:14.421Z,21.75
2019-04-25T11:30:45.895Z,21.99
2019-04-25T11:33:15.973Z,22.15
2019-04-25T11:35:46.830Z,22.06
2019-04-25T11:38:16.576Z,21.70
2019-04-25T11:40:49.154Z,21.39
2019-04-25T11:43:17.065Z,21.01
2019-04-25T11:45:46.053Z,20.89
2019-04-25T11:48:15.106Z,20.63
2019-04-25T11:50:47.268Z,20.61
2019-04-25T11:53:14.039Z,20.63
2019-04-25T11:55:43.617Z,20.94
2019-04-25T11:58:12.197Z,21.19
2019-04-25T12:00:40.876Z,21.50
2019-04-25T12:03:09.707Z,21.93
2019-04-25T12:05:38.345Z,22.09
2019-04-25T12:08:07.282Z,22.55
2019-04-25T12:10:36.845Z,22.73
2019-04-25T12:13:05.467Z,22.70
2019-04-25T12:15:34.154Z,22.80
2019-04-25T12:18:04.556Z,22.88
2019-04-25T12:20:34.078Z,22.83
2019-04-25T12:23:08.470Z,22.74
2019-04-25T12:25:34.074Z,22.72
2019-04-25T12:28:04.580Z,22.91
2019-04-25T12:30:38.328Z,23.07
2019-04-25T12:33:03.729Z,23.07
2019-04-25T12:35:33.328Z,23.08
2019-04-25T12:38:03.449Z,23.07
2019-04-25T12:40:34.236Z,23.19
2019-04-25T12:43:03.121Z,23.16
2019-04-25T12:45:34.761Z,23.22
2019-04-25T12:48:04.994Z,23.50
2019-04-25T12:50:33.763Z,23.69
2019-04-25T12:53:03.685Z,23.73
2019-04-25T12:55:34.215Z,23.54
2019-04-25T12:58:03.550Z,23.40
2019-04-25T13:00:34.201Z,23.64
2019-04-25T13:03:04.058Z,23.88
2019-04-25T13:05:34.217Z,23.94
2019-04-25T13:08:04.729Z,24.06
2019-04-25T13:10:33.369Z,24.16
2019-04-25T13:13:03.963Z,23.79
2019-04-25T13:15:33.506Z,23.67
2019-04-25T13:18:03.545Z,23.82
2019-04-25T13:20:32.913Z,23.85
2019-04-25T13:23:03.536Z,23.85
2019-04-25T13:25:34.282Z,23.84
2019-04-25T13:28:14.434Z,23.96
2019-04-25T13:30:44.671Z,24.11
2019-04-25T13:33:20.655Z,24.19
2019-04-25T13:36:06.925Z,24.02
2019-04-25T13:38:35.615Z,24.38
2019-04-25T13:41:04.196Z,24.32
2019-04-25T13:43:32.896Z,24.39
2019-04-25T13:46:01.760Z,24.09
2019-04-25T13:48:30.419Z,24.36
2019-04-25T13:50:59.062Z,24.10
2019-04-25T13:53:27.748Z,23.63
2019-04-25T13:55:56.356Z,23.48
2019-04-25T13:58:25.521Z,23.53
2019-04-25T14:00:54.270Z,23.57
2019-04-25T14:03:23.050Z,23.49
2019-04-25T14:05:51.549Z,23.46
2019-04-25T14:08:21.010Z,23.46
2019-04-25T14:10:49.585Z,23.38
2019-04-25T14:13:18.211Z,23.23
2019-04-25T14:15:51.281Z,23.09
2019-04-25T14:18:37.461Z,22.90
2019-04-25T14:21:10.380Z,22.90
2019-04-25T14:23:39.018Z,22.85
2019-04-25T14:26:08.299Z,22.67
2019-04-25T14:28:36.938Z,22.52
2019-04-25T14:31:07.189Z,22.49
2019-04-25T14:33:35.776Z,22.34
2019-04-25T14:36:04.570Z,22.38
2019-04-25T14:38:33.867Z,22.53
2019-04-25T14:41:02.942Z,22.63
2019-04-25T14:43:31.494Z,22.68
2019-04-25T14:46:00.764Z,22.60
2019-04-25T14:48:29.465Z,22.39
2019-04-25T14:50:58.142Z,22.22
2019-04-25T14:53:26.719Z,22.16
2019-04-25T14:56:02.741Z,22.02
2019-04-25T14:58:32.961Z,21.82
2019-04-25T15:01:01.599Z,21.74
2019-04-25T15:03:30.179Z,21.58
2019-04-25T15:05:59.424Z,21.56
2019-04-25T15:08:28.547Z,21.42
2019-04-25T15:10:57.123Z,21.36
2019-04-25T15:13:25.867Z,21.33
2019-04-25T15:15:54.508Z,21.39
2019-04-25T15:18:23.506Z,21.46
2019-04-25T15:20:52.494Z,21.41
2019-04-25T15:23:21.127Z,21.42
2019-04-25T15:25:49.727Z,21.45
2019-04-25T15:28:18.235Z,21.47
2019-04-25T15:30:47.139Z,21.58
2019-04-25T15:33:15.815Z,21.60
2019-04-25T15:35:49.017Z,21.60
2019-04-25T15:38:34.375Z,21.65
2019-04-25T15:41:04.716Z,21.49
2019-04-25T15:43:34.968Z,21.43
2019-04-25T15:46:08.128Z,21.39
2019-04-25T15:48:37.334Z,21.35
2019-04-25T15:51:06.096Z,21.39
2019-04-25T15:53:35.042Z,21.38
2019-04-25T15:56:04.159Z,21.30
2019-04-25T15:58:33.061Z,21.22
2019-04-25T16:01:01.726Z,21.14
2019-04-25T16:03:30.813Z,20.97
2019-04-25T16:05:59.469Z,20.88
2019-04-25T16:08:28.749Z,20.83
2019-04-25T16:10:57.560Z,20.42
2019-04-25T16:13:27.013Z,20.13
2019-04-25T16:15:56.123Z,19.80
2019-04-25T16:18:24.714Z,19.66
2019-04-25T16:20:53.346Z,19.71
2019-04-25T16:23:21.906Z,19.56
2019-04-25T16:25:50.487Z,19.44
2019-04-25T16:28:19.110Z,19.28
2019-04-25T16:30:47.801Z,19.20
2019-04-25T16:33:16.406Z,19.18
2019-04-25T16:35:45.047Z,18.97
2019-04-25T16:38:14.063Z,19.01
2019-04-25T16:40:42.684Z,18.93
2019-04-25T16:43:12.840Z,18.98
2019-04-25T16:45:41.477Z,19.14
2019-04-25T16:48:10.159Z,19.15
2019-04-25T16:50:39.999Z,19.16
2019-04-25T16:53:08.695Z,19.12
2019-04-25T16:55:37.285Z,19.20
2019-04-25T16:58:06.205Z,19.15
2019-04-25T17:00:42.516Z,19.03
2019-04-25T17:03:12.039Z,18.61
2019-04-25T17:05:40.828Z,18.38
2019-04-25T17:08:09.814Z,18.13
2019-04-25T17:10:39.474Z,18.11
2019-04-25T17:13:09.115Z,18.04
2019-04-25T17:15:55.495Z,18.02
2019-04-25T17:18:25.696Z,18.05
2019-04-25T17:21:05.110Z,17.94
2019-04-25T17:23:34.485Z,17.80
2019-04-25T17:26:04.816Z,17.79
2019-04-25T17:28:35.096Z,17.85
2019-04-25T17:31:11.164Z,18.00
2019-04-25T17:33:41.540Z,18.04
2019-04-25T17:36:15.610Z,18.01
2019-04-25T17:38:48.834Z,17.99
2019-04-25T17:41:17.450Z,17.99
2019-04-25T17:43:46.067Z,18.01
2019-04-25T17:46:16.254Z,17.88
2019-04-25T17:48:44.772Z,17.79
2019-04-25T17:51:13.365Z,17.83
2019-04-25T17:53:42.050Z,17.78
2019-04-25T17:56:10.764Z,17.75
2019-04-25T17:58:39.377Z,17.68
2019-04-25T18:01:09.825Z,17.44
2019-04-25T18:03:39.354Z,17.33
2019-04-25T18:06:08.013Z,17.34
2019-04-25T18:08:37.490Z,17.24
2019-04-25T18:11:06.766Z,17.18
2019-04-25T18:13:38.496Z,17.05
2019-04-25T18:16:13.184Z,16.91
2019-04-25T18:18:46.403Z,16.75
2019-04-25T18:21:15.005Z,16.74
2019-04-25T18:23:45.266Z,16.76
2019-04-25T18:26:30.369Z,16.70
2019-04-25T18:29:09.645Z,16.64
2019-04-25T18:31:38.279Z,16.49
2019-04-25T18:34:11.288Z,16.30
2019-04-25T18:36:57.359Z,16.20
2019-04-25T18:39:33.569Z,16.19
2019-04-25T18:42:09.831Z,16.33
2019-04-25T18:44:38.383Z,16.39
2019-04-25T18:47:07.004Z,16.36
2019-04-25T18:49:36.344Z,16.38
2019-04-25T18:52:07.642Z,16.23
2019-04-25T18:54:41.139Z,15.82
2019-04-25T18:57:11.279Z,15.89
2019-04-25T18:59:44.544Z,15.90
2019-04-25T19:02:15.093Z,16.00
2019-04-25T19:04:45.244Z,15.98
2019-04-25T19:07:22.473Z,15.90
2019-04-25T19:09:44.923Z,15.91
2019-04-25T19:12:13.530Z,15.77
2019-04-25T19:14:43.102Z,15.55
2019-04-25T19:17:11.838Z,15.38
2019-04-25T19:19:41.122Z,15.20
2019-04-25T19:22:09.714Z,14.97
2019-04-25T19:24:40.358Z,15.05
2019-04-25T19:27:08.664Z,15.13
2019-04-25T19:29:37.280Z,14.97
2019-04-25T19:32:05.924Z,14.90
2019-04-25T19:34:34.476Z,14.98
2019-04-25T19:37:04.100Z,14.92
2019-04-25T19:39:34.291Z,14.91
2019-04-25T19:42:16.274Z,15.00
2019-04-25T19:44:45.107Z,15.07
2019-04-25T19:47:13.815Z,15.08
2019-04-25T19:49:42.969Z,15.03
2019-04-25T19:52:11.474Z,15.03
2019-04-25T19:54:40.870Z,15.01
2019-04-25T19:57:10.514Z,15.11
2019-04-25T19:59:39.077Z,14.99
2019-04-25T20:02:12.086Z,15.03
2019-04-25T20:04:45.028Z,14.96
2019-04-25T20:07:15.298Z,14.79
2019-04-25T20:09:54.412Z,14.72
2019-04-25T20:12:24.621Z,14.64
2019-04-25T20:14:53.573Z,14.75
2019-04-25T20:17:22.173Z,14.77
2019-04-25T20:19:51.800Z,14.85
2019-04-25T20:22:20.424Z,14.89
2019-04-25T20:24:49.035Z,14.80
2019-04-25T20:27:17.746Z,14.71
2019-04-25T20:29:46.588Z,14.70
2019-04-25T20:32:15.200Z,14.53
2019-04-25T20:34:44.579Z,14.48
2019-04-25T20:37:14.193Z,14.36
2019-04-25T20:39:42.798Z,14.18
2019-04-25T20:42:11.314Z,14.19
2019-04-25T20:44:40.016Z,14.19
2019-04-25T20:47:08.658Z,14.07
2019-04-25T20:49:37.218Z,14.21
2019-04-25T20:52:05.872Z,14.19
2019-04-25T20:54:34.434Z,13.98
2019-04-25T20:57:02.986Z,13.97
2019-04-25T20:59:31.596Z,14.02
2019-04-25T21:02:00.174Z,14.09
2019-04-25T21:04:41.624Z,14.08
2019-04-25T21:07:10.629Z,14.27
2019-04-25T21:09:39.524Z,14.39
2019-04-25T21:12:08.128Z,14.48
2019-04-25T21:14:38.460Z,14.27
2019-04-25T21:17:20.975Z,14.21
2019-04-25T21:19:51.771Z,14.04
2019-04-25T21:22:21.371Z,14.23
2019-04-25T21:24:50.529Z,14.19
2019-04-25T21:27:20.257Z,14.09
2019-04-25T21:29:48.859Z,14.27
2019-04-25T21:32:19.082Z,14.38
2019-04-25T21:34:47.656Z,14.46
2019-04-25T21:37:16.506Z,14.38
2019-04-25T21:39:47.136Z,14.36
2019-04-25T21:42:21.296Z,14.39
2019-04-25T21:44:50.180Z,14.40
2019-04-25T21:47:18.819Z,14.45
2019-04-25T21:49:47.717Z,14.46
2019-04-25T21:52:16.301Z,14.51
2019-04-25T21:54:45.687Z,14.52
2019-04-25T21:57:15.772Z,14.50
2019-04-25T21:59:44.491Z,14.40
2019-04-25T22:02:13.143Z,14.44
2019-04-25T22:04:42.507Z,14.56
2019-04-25T22:07:12.368Z,14.39
2019-04-25T22:09:41.116Z,14.15
2019-04-25T22:12:10.677Z,14.22
2019-04-25T22:14:39.296Z,14.35
2019-04-25T22:17:08.291Z,14.35
2019-04-25T22:19:37.217Z,14.23
2019-04-25T22:22:06.833Z,14.04
2019-04-25T22:24:35.491Z,13.91
2019-04-25T22:27:06.136Z,13.80
2019-04-25T22:29:36.469Z,13.85
2019-04-25T22:32:18.615Z,13.83
2019-04-25T22:34:52.821Z,13.74
2019-04-25T22:37:21.342Z,13.60
2019-04-25T22:39:49.970Z,13.66
2019-04-25T22:42:18.582Z,13.74
2019-04-25T22:44:47.276Z,13.72
2019-04-25T22:47:17.579Z,13.76
2019-04-25T22:49:46.415Z,13.72
2019-04-25T22:52:15.329Z,13.82
2019-04-25T22:54:44.147Z,13.69
2019-04-25T22:57:12.991Z,13.61
2019-04-25T22:59:41.845Z,13.59
2019-04-25T23:02:12.126Z,13.68
2019-04-25T23:05:04.306Z,13.75
2019-04-25T23:07:22.005Z,13.82
2019-04-25T23:09:51.574Z,13.90
2019-04-25T23:12:20.527Z,13.96
2019-04-25T23:14:49.140Z,13.96
2019-04-25T23:17:17.734Z,13.92
2019-04-25T23:19:46.663Z,14.00
2019-04-25T23:22:15.292Z,14.10
2019-04-25T23:24:48.586Z,14.14
2019-04-25T23:27:18.792Z,14.09
2019-04-25T23:29:47.360Z,14.04
2019-04-25T23:32:16.156Z,14.03
2019-04-25T23:34:44.733Z,13.92
2019-04-25T23:37:13.132Z,13.94
2019-04-25T23:39:42.156Z,14.00
2019-04-25T23:42:11.407Z,13.89
2019-04-25T23:44:40.302Z,13.78
2019-04-25T23:47:08.816Z,13.80
2019-04-25T23:49:37.326Z,13.80
2019-04-25T23:52:07.268Z,13.87
2019-04-25T23:54:35.925Z,13.79
2019-04-25T23:57:04.887Z,13.89
2019-04-25T23:59:33.475Z,14.01
